Time;durP1;ratioP1;P1;durP2;ratioP2;P2;SDS_P1;SDS_P2;PMS_P1;PMS_P2;Temp;Humidity;BMP_temperature;BMP_pressure;BME280_temperature;BME280_humidity;BME280_pressure;Samples;Min_cycle;Max_cycle;Signal;HPM_P1;HPM_P2
2022/06/09 00:01:31;;;;;;;;;1.00;1.00;;;;;17.02;60.25;100827.00;5130534;27;45166;-78
2022/06/09 00:04:06;;;;;;;;;2.00;1.25;;;;;17.11;60.53;100847.44;5131469;27;45295;-78
2022/06/09 00:06:38;;;;;;;;;2.75;2.75;;;;;17.07;60.12;100835.91;5131789;27;45069;-78
2022/06/09 00:09:05;;;;;;;;;2.00;1.25;;;;;17.02;60.30;100838.50;5128453;27;45104;-78
2022/06/09 00:11:33;;;;;;;;;2.75;2.00;;;;;16.99;59.78;100851.78;5110555;27;45095;-78
2022/06/09 00:13:59;;;;;;;;;2.25;2.25;;;;;16.95;60.16;100843.75;5111770;27;45323;-78
2022/06/09 00:16:25;;;;;;;;;2.00;2.00;;;;;16.85;60.43;100825.97;5130868;27;44983;-78
2022/06/09 00:18:51;;;;;;;;;1.00;1.00;;;;;16.93;59.79;100845.50;5131681;27;44997;-77
2022/06/09 00:21:17;;;;;;;;;2.00;2.00;;;;;16.88;59.35;100833.94;5130780;27;45162;-78
2022/06/09 00:23:42;;;;;;;;;2.00;1.00;;;;;16.98;59.99;100852.63;5112256;27;47293;-78
2022/06/09 00:26:08;;;;;;;;;2.50;1.25;;;;;16.79;60.44;100829.41;5129022;27;49219;-78
2022/06/09 00:28:34;;;;;;;;;2.00;1.75;;;;;16.94;60.19;100861.44;5112388;27;45657;-78
2022/06/09 00:30:59;;;;;;;;;1.25;1.25;;;;;16.71;59.98;100831.09;5130512;27;45368;-77
2022/06/09 00:33:25;;;;;;;;;3.00;2.00;;;;;16.71;59.67;100832.00;5109221;27;47726;-78
2022/06/09 00:35:50;;;;;;;;;2.00;2.00;;;;;16.88;59.92;100877.28;5123234;27;45347;-78
2022/06/09 00:38:15;;;;;;;;;2.25;1.25;;;;;16.76;60.24;100861.25;5126472;27;45245;-78
2022/06/09 00:40:41;;;;;;;;;2.00;1.50;;;;;16.88;60.42;100893.22;5128576;27;45416;-77
2022/06/09 00:43:07;;;;;;;;;1.50;1.00;;;;;16.87;59.75;100891.44;5103018;27;46209;-77
2022/06/09 00:45:47;;;;;;;;;2.25;2.00;;;;;16.85;59.75;100889.66;5130787;27;45527;-78
2022/06/09 00:48:15;;;;;;;;;3.00;3.00;;;;;16.84;59.81;100886.09;5127453;27;45250;-79
2022/06/09 00:50:42;;;;;;;;;2.00;1.25;;;;;16.66;60.54;100859.34;5130887;27;45187;-78
2022/06/09 00:53:21;;;;;;;;;2.75;2.75;;;;;16.82;60.43;100887.84;5129481;27;45902;-78
2022/06/09 00:55:46;;;;;;;;;1.25;1.25;;;;;16.79;60.66;100886.91;5123046;27;45375;-78
2022/06/09 00:58:15;;;;;;;;;2.00;2.00;;;;;16.77;59.96;100885.16;5131077;27;45041;-78
2022/06/09 01:00:54;;;;;;;;;2.25;1.50;;;;;16.56;60.38;100852.13;5129715;27;45221;-78
2022/06/09 01:03:23;;;;;;;;;2.25;2.00;;;;;16.45;60.39;100839.63;5130011;27;45917;-78
2022/06/09 01:05:53;;;;;;;;;2.00;1.00;;;;;16.53;60.17;100863.59;5130420;27;45594;-78
2022/06/09 01:08:18;;;;;;;;;4.00;2.00;;;;;16.37;60.20;100845.72;5129194;27;45313;-77
2022/06/09 01:10:44;;;;;;;;;3.50;2.25;;;;;16.54;60.47;100883.06;5113309;27;45407;-78
2022/06/09 01:13:11;;;;;;;;;3.00;2.00;;;;;16.48;60.75;100867.94;5109419;27;45292;-78
2022/06/09 01:16:01;;;;;;;;;3.25;2.75;;;;;16.52;60.56;100883.94;5118283;27;45194;-77
2022/06/09 01:18:58;;;;;;;;;1.25;1.25;;;;;16.54;60.61;100869.78;5127648;27;44897;-78
2022/06/09 01:22:12;;;;;;;;;1.50;1.25;;;;;16.36;60.66;100858.09;5118035;27;45794;-78
2022/06/09 01:24:52;;;;;;;;;2.00;1.75;;;;;16.60;60.36;100902.63;5116952;27;45229;-78
2022/06/09 01:27:39;;;;;;;;;2.50;2.00;;;;;16.58;60.94;100907.00;5130147;27;45633;-77
2022/06/09 01:30:16;;;;;;;;;1.75;1.75;;;;;16.56;60.54;100900.78;5129778;27;45130;-78
2022/06/09 01:32:57;;;;;;;;;2.75;2.75;;;;;16.33;61.05;100866.00;5128955;27;45349;-78
2022/06/09 01:35:47;;;;;;;;;3.00;2.00;;;;;16.33;60.93;100887.22;5111085;27;47446;-78
2022/06/09 01:38:13;;;;;;;;;4.00;3.25;;;;;16.33;61.91;100889.88;5128520;27;45185;-77
2022/06/09 01:40:38;;;;;;;;;2.25;2.00;;;;;16.36;60.80;100889.03;5130300;27;45020;-77
2022/06/09 01:43:05;;;;;;;;;6.00;3.25;;;;;16.20;61.34;100874.66;5127852;27;45074;-78
2022/06/09 01:45:52;;;;;;;;;2.25;2.00;;;;;16.43;61.73;100917.41;5123482;27;45565;-78
2022/06/09 01:48:20;;;;;;;;;2.00;1.00;;;;;16.33;61.29;100902.25;5116717;27;46539;-78
2022/06/09 01:50:49;;;;;;;;;2.00;2.00;;;;;16.36;61.50;100916.44;5115600;27;46729;-78
2022/06/09 01:53:23;;;;;;;;;2.50;2.00;;;;;16.36;61.94;100918.22;5107220;27;45729;-78
2022/06/09 01:55:55;;;;;;;;;2.50;1.00;;;;;16.21;61.75;100895.91;5118696;27;46369;-78
2022/06/09 01:58:26;;;;;;;;;2.00;2.00;;;;;16.23;61.43;100898.56;5112934;27;45809;-78
2022/06/09 02:00:54;;;;;;;;;3.00;3.00;;;;;16.08;61.66;100885.09;5112696;27;45175;-78
2022/06/09 02:03:28;;;;;;;;;4.75;2.50;;;;;16.25;62.02;100920.69;5108200;27;45509;-78
2022/06/09 02:05:58;;;;;;;;;2.75;2.00;;;;;16.17;61.65;100914.41;5092179;27;47506;-77
2022/06/09 02:08:24;;;;;;;;;3.00;2.00;;;;;16.18;62.01;100918.84;5120070;27;46773;-77
2022/06/09 02:10:56;;;;;;;;;2.00;2.00;;;;;16.07;61.84;100908.06;5123888;27;45461;-78
2022/06/09 02:13:27;;;;;;;;;2.00;2.00;;;;;16.05;62.04;100916.84;5120836;27;45368;-77
2022/06/09 02:15:57;;;;;;;;;4.00;2.75;;;;;15.98;62.75;100902.63;5122647;27;45491;-78
2022/06/09 02:18:26;;;;;;;;;4.25;3.00;;;;;16.20;61.85;100938.28;5114676;27;45487;-78
2022/06/09 02:21:02;;;;;;;;;1.75;1.75;;;;;16.11;62.40;100919.63;5127411;27;45411;-78
2022/06/09 02:23:28;;;;;;;;;1.75;1.75;;;;;16.10;62.34;100925.78;5123197;27;45290;-78
2022/06/09 02:25:54;;;;;;;;;3.50;2.75;;;;;16.02;62.25;100919.47;5128392;27;45400;-78
2022/06/09 02:28:19;;;;;;;;;2.50;2.25;;;;;16.07;62.76;100934.59;5129161;27;45004;-78
2022/06/09 02:30:45;;;;;;;;;4.75;2.75;;;;;15.80;62.36;100881.13;5129277;27;45144;-77
2022/06/09 02:33:11;;;;;;;;;1.25;1.25;;;;;15.85;62.28;100895.34;5129153;27;45247;-78
2022/06/09 02:35:37;;;;;;;;;2.00;2.00;;;;;15.80;62.45;100897.03;5129489;27;45307;-78
2022/06/09 02:38:03;;;;;;;;;3.00;2.00;;;;;16.07;62.84;100945.19;5110320;27;45343;-77
2022/06/09 02:40:31;;;;;;;;;4.75;2.75;;;;;16.04;62.96;100938.94;5129005;27;45131;-78
2022/06/09 02:42:57;;;;;;;;;4.00;2.25;;;;;15.90;62.86;100913.09;5130240;27;45158;-78
2022/06/09 02:45:22;;;;;;;;;3.25;3.00;;;;;16.06;62.69;100939.84;5132790;27;45635;-78
2022/06/09 02:47:48;;;;;;;;;3.75;3.00;;;;;15.85;62.92;100911.25;5132458;27;45385;-77
2022/06/09 02:50:14;;;;;;;;;3.00;2.00;;;;;15.87;62.91;100913.06;5132453;27;45116;-77
2022/06/09 02:52:41;;;;;;;;;3.25;2.50;;;;;15.97;63.46;100935.31;5133074;27;45187;-77
2022/06/09 02:55:08;;;;;;;;;3.75;3.00;;;;;15.67;62.94;100885.38;5117827;27;46080;-77
2022/06/09 02:57:33;;;;;;;;;2.25;2.00;;;;;15.76;63.10;100911.09;5117819;27;45044;-78
2022/06/09 02:59:58;;;;;;;;;2.50;2.50;;;;;15.83;63.13;100931.56;5132208;27;45568;-78
2022/06/09 03:02:23;;;;;;;;;3.00;3.00;;;;;15.74;63.62;100908.44;5132485;27;45500;-79
2022/06/09 03:04:50;;;;;;;;;2.00;1.50;;;;;15.72;63.70;100910.19;5132313;27;46181;-79
2022/06/09 03:07:15;;;;;;;;;1.25;1.00;;;;;15.69;63.03;100910.13;5132360;27;45742;-78
2022/06/09 03:09:41;;;;;;;;;2.50;2.25;;;;;15.68;62.95;100905.69;5124655;27;45104;-79
2022/06/09 03:12:07;;;;;;;;;2.00;2.00;;;;;15.76;63.50;100932.31;5111133;27;45340;-78
2022/06/09 03:14:33;;;;;;;;;6.00;3.25;;;;;15.80;63.37;100948.28;5111766;27;45311;-78
2022/06/09 03:16:59;;;;;;;;;4.00;3.00;;;;;15.61;63.78;100917.88;5111457;27;45263;-79
2022/06/09 03:19:24;;;;;;;;;3.00;3.00;;;;;15.54;64.04;100909.84;5111543;27;45135;-80
2022/06/09 03:21:50;;;;;;;;;3.75;3.00;;;;;15.50;63.40;100903.59;5111835;27;45119;-79
2022/06/09 03:24:15;;;;;;;;;3.50;2.25;;;;;15.78;63.51;100951.78;5111181;27;46288;-79
2022/06/09 03:26:41;;;;;;;;;4.75;3.50;;;;;15.59;63.65;100913.44;5092361;27;45206;-78
2022/06/09 03:29:06;;;;;;;;;2.25;2.25;;;;;15.47;63.61;100900.91;5111303;27;45200;-79
2022/06/09 03:31:31;;;;;;;;;3.75;3.00;;;;;15.56;63.79;100913.38;5110873;27;45177;-78
2022/06/09 03:33:57;;;;;;;;;2.75;2.50;;;;;15.48;64.24;100918.56;5110529;27;45611;-78
2022/06/09 03:36:22;;;;;;;;;4.25;3.25;;;;;15.66;63.74;100952.44;5129717;27;45044;-78
2022/06/09 03:38:48;;;;;;;;;4.25;3.25;;;;;15.54;64.21;100933.69;5132598;27;44980;-79
2022/06/09 03:41:13;;;;;;;;;4.00;4.00;;;;;15.52;63.94;100928.38;5131309;27;44921;-79
2022/06/09 03:43:38;;;;;;;;;2.25;2.25;;;;;15.50;64.11;100938.03;5130314;27;45475;-78
2022/06/09 03:46:04;;;;;;;;;2.00;2.00;;;;;15.42;64.03;100937.91;5131242;27;45232;-79
2022/06/09 03:48:30;;;;;;;;;2.00;2.00;;;;;15.65;64.39;100974.53;5131622;27;45346;-79
2022/06/09 03:50:55;;;;;;;;;2.00;2.00;;;;;15.52;64.58;100953.94;5131312;27;45100;-78
2022/06/09 03:53:21;;;;;;;;;3.25;3.25;;;;;15.46;64.69;100946.78;5112051;27;46383;-78
2022/06/09 03:55:46;;;;;;;;;2.50;2.50;;;;;15.62;64.82;100977.09;5124081;27;46553;-78
2022/06/09 03:58:12;;;;;;;;;2.00;2.00;;;;;15.38;65.00;100944.00;5128242;27;45245;-79
2022/06/09 04:00:38;;;;;;;;;4.75;4.00;;;;;15.64;65.12;100999.25;5131051;27;44999;-79
2022/06/09 04:03:04;;;;;;;;;2.00;2.00;;;;;15.46;64.43;100968.84;5123236;27;45980;-79
2022/06/09 04:05:30;;;;;;;;;2.75;2.75;;;;;15.66;65.22;101000.16;5110535;27;45314;-79
2022/06/09 04:07:59;;;;;;;;;4.75;3.00;;;;;15.58;64.66;100986.75;5110702;27;45147;-79
2022/06/09 04:10:30;;;;;;;;;2.75;2.00;;;;;15.68;64.93;101011.69;5124686;27;45269;-78
2022/06/09 04:12:55;;;;;;;;;2.50;2.00;;;;;15.54;65.32;100986.66;5130495;27;45762;-79
2022/06/09 04:15:21;;;;;;;;;4.00;4.00;;;;;15.38;64.70;100954.59;5131105;27;45551;-79
2022/06/09 04:17:47;;;;;;;;;3.50;2.50;;;;;15.37;64.78;100952.81;5112717;27;44984;-78
2022/06/09 04:20:16;;;;;;;;;2.25;2.00;;;;;15.66;65.08;101002.78;5130787;27;45028;-79
2022/06/09 04:22:41;;;;;;;;;3.75;3.75;;;;;15.46;64.52;100984.75;5131130;27;45755;-80
2022/06/09 04:25:07;;;;;;;;;3.75;3.00;;;;;15.42;65.07;100985.56;5111636;27;45474;-78
2022/06/09 04:27:33;;;;;;;;;3.75;3.00;;;;;15.47;65.52;101002.44;5123729;27;45166;-79
2022/06/09 04:29:58;;;;;;;;;5.00;3.00;;;;;15.54;65.20;101014.03;5129780;27;45224;-79
2022/06/09 04:32:24;;;;;;;;;5.50;3.50;;;;;15.62;65.08;101023.03;5128024;27;45324;-78
2022/06/09 04:34:50;;;;;;;;;3.00;3.00;;;;;15.61;65.22;101023.88;5122816;27;45519;-79
2022/06/09 04:37:15;;;;;;;;;4.00;4.00;;;;;15.45;65.10;101006.81;5108222;27;45123;-78
2022/06/09 04:39:41;;;;;;;;;5.00;4.00;;;;;15.31;65.21;100984.47;5130511;27;45048;-78
2022/06/09 04:42:07;;;;;;;;;4.00;2.75;;;;;15.45;65.36;101001.50;5128237;27;45381;-78
2022/06/09 04:44:32;;;;;;;;;4.25;3.25;;;;;15.41;65.12;101004.06;5123778;27;45823;-78
2022/06/09 04:46:57;;;;;;;;;4.25;3.00;;;;;15.49;64.94;101021.00;5123953;27;45115;-78
2022/06/09 04:49:23;;;;;;;;;3.00;1.75;;;;;15.60;65.00;101040.63;5121311;27;45206;-79
2022/06/09 04:51:48;;;;;;;;;4.00;4.00;;;;;15.38;64.91;100996.09;5123889;27;45709;-79
2022/06/09 04:54:13;;;;;;;;;5.00;4.00;;;;;15.47;65.20;101023.63;5125628;27;45250;-79
2022/06/09 04:56:39;;;;;;;;;5.00;4.00;;;;;15.52;65.47;101034.31;5125589;27;45199;-80
2022/06/09 04:59:04;;;;;;;;;3.00;3.00;;;;;15.63;65.01;101053.06;5126777;27;45190;-79
2022/06/09 05:01:31;;;;;;;;;4.75;4.00;;;;;15.60;64.81;101060.94;5128286;27;45948;-77
2022/06/09 05:03:59;;;;;;;;;3.00;3.00;;;;;15.66;65.57;101075.25;5129401;27;45635;-78
2022/06/09 05:06:27;;;;;;;;;3.25;3.00;;;;;15.70;65.70;101076.19;5120994;27;45030;-78
2022/06/09 05:08:53;;;;;;;;;4.00;2.50;;;;;15.72;65.36;101078.03;5110855;27;45456;-78
2022/06/09 05:11:20;;;;;;;;;2.25;2.25;;;;;15.76;65.53;101073.66;5111413;27;47593;-78
2022/06/09 05:13:46;;;;;;;;;2.50;2.25;;;;;15.64;65.36;101053.13;5110539;27;45821;-78
2022/06/09 05:16:12;;;;;;;;;4.75;4.00;;;;;15.68;65.58;101052.31;5111746;27;45518;-78
2022/06/09 05:18:38;;;;;;;;;4.50;3.00;;;;;15.85;65.69;101078.22;5109646;27;45825;-78
2022/06/09 05:21:05;;;;;;;;;4.50;3.25;;;;;15.76;65.81;101055.09;5091655;27;46440;-79
2022/06/09 05:23:30;;;;;;;;;6.00;3.00;;;;;15.93;65.60;101085.47;5113307;27;46045;-78
2022/06/09 05:25:58;;;;;;;;;3.00;3.00;;;;;15.85;65.75;101059.69;5117045;27;45813;-78
2022/06/09 05:28:25;;;;;;;;;3.75;3.00;;;;;15.86;65.60;101065.03;5122168;27;45314;-78
2022/06/09 05:30:51;;;;;;;;;2.75;2.75;;;;;15.84;65.15;101058.78;5102649;27;46561;-78
2022/06/09 05:33:17;;;;;;;;;3.00;2.00;;;;;16.12;65.37;101104.38;5128917;27;45246;-78
2022/06/09 05:35:46;;;;;;;;;4.25;4.00;;;;;15.97;64.91;101075.81;5124553;27;45103;-78
2022/06/09 05:46:27;;;;;;;;;7.50;6.00;;;;;16.15;65.12;101089.38;5116796;27;45106;-79
2022/06/09 05:48:53;;;;;;;;;5.75;4.75;;;;;16.01;65.69;101059.09;5125966;27;45098;-79
2022/06/09 05:51:18;;;;;;;;;6.50;4.75;;;;;16.44;65.53;101112.84;5129693;27;45344;-79
2022/06/09 05:53:45;;;;;;;;;5.75;3.75;;;;;16.54;65.15;101117.44;5126694;27;45165;-79
2022/06/09 05:56:11;;;;;;;;;3.00;2.00;;;;;16.66;64.52;101119.41;5119657;27;45219;-78
2022/06/09 05:58:36;;;;;;;;;4.00;3.25;;;;;16.73;64.13;101118.66;5108521;27;45269;-78
2022/06/09 06:01:07;;;;;;;;;5.75;3.75;;;;;16.84;63.93;101125.03;5120622;27;45799;-79
2022/06/09 06:03:34;;;;;;;;;5.50;4.00;;;;;16.81;63.76;101117.03;5129021;27;45152;-80
2022/06/09 06:08:43;;;;;;;;;4.00;4.00;;;;;16.91;63.37;101116.31;5129782;27;45019;-80
2022/06/09 06:11:09;;;;;;;;;3.75;3.00;;;;;16.85;63.19;101102.94;5108522;27;45183;-79
2022/06/09 06:13:34;;;;;;;;;6.50;4.50;;;;;16.90;63.37;101106.56;5124436;27;45173;-79
2022/06/09 06:16:00;;;;;;;;;4.75;4.25;;;;;16.96;63.48;101109.28;5128809;27;45030;-79
2022/06/09 06:18:27;;;;;;;;;6.00;4.75;;;;;17.06;62.95;101117.38;5131482;27;45215;-79
2022/06/09 06:20:55;;;;;;;;;5.00;4.00;;;;;17.09;62.59;101118.31;5133112;27;45687;-79
2022/06/09 06:23:21;;;;;;;;;6.00;4.00;;;;;17.05;62.43;101116.50;5132816;27;45624;-80
2022/06/09 06:25:46;;;;;;;;;4.25;3.00;;;;;17.01;62.93;101115.56;5133017;27;45035;-80
2022/06/09 06:28:12;;;;;;;;;4.00;3.75;;;;;16.98;62.94;101109.31;5132324;27;45028;-79
2022/06/09 06:30:37;;;;;;;;;2.75;2.50;;;;;17.10;62.46;101112.16;5132810;27;45066;-79
2022/06/09 06:33:02;;;;;;;;;4.00;3.75;;;;;17.11;62.89;101108.63;5131657;27;45091;-79
2022/06/09 06:35:28;;;;;;;;;8.25;7.00;;;;;17.12;62.37;101112.16;5114055;27;45114;-78
2022/06/09 06:37:53;;;;;;;;;4.00;3.00;;;;;17.10;62.93;101114.81;5132949;27;45008;-79
2022/06/09 06:40:19;;;;;;;;;6.25;4.50;;;;;16.89;62.25;101091.47;5131890;27;45764;-79
2022/06/09 06:42:44;;;;;;;;;4.75;4.75;;;;;17.09;62.34;101130.69;5132314;27;45294;-79
2022/06/09 06:45:14;;;;;;;;;4.00;4.00;;;;;17.25;62.69;101164.59;5111715;27;45523;-78
2022/06/09 06:47:39;;;;;;;;;4.25;4.00;;;;;17.17;62.43;101151.19;5111688;27;45212;-79
2022/06/09 06:50:07;;;;;;;;;4.75;4.25;;;;;17.19;62.62;101149.47;5111747;27;45718;-79
2022/06/09 06:52:32;;;;;;;;;4.00;3.75;;;;;17.21;62.60;101144.16;5111539;27;45132;-78
2022/06/09 06:54:58;;;;;;;;;4.75;4.50;;;;;17.22;63.02;101140.63;5111557;27;45343;-79
2022/06/09 06:57:25;;;;;;;;;5.25;4.50;;;;;17.25;62.33;101130.94;5092493;27;45090;-79
2022/06/09 06:59:50;;;;;;;;;4.00;4.00;;;;;17.42;62.24;101163.03;5110937;27;45203;-80
2022/06/09 07:02:15;;;;;;;;;4.75;3.50;;;;;17.55;62.15;101172.06;5110322;27;45262;-79
2022/06/09 07:04:41;;;;;;;;;5.00;4.67;;;;;17.46;62.63;101138.28;5092917;27;45109;-80
2022/06/09 07:07:06;;;;;;;;;5.50;3.00;;;;;17.77;61.59;101162.63;5111497;27;45286;-79
2022/06/09 07:09:31;;;;;;;;;6.50;3.50;;;;;17.62;61.06;101141.13;5118190;27;46142;-80
2022/06/09 07:11:57;;;;;;;;;4.00;3.00;;;;;17.89;60.55;101189.38;5131644;27;45159;-78
2022/06/09 07:14:22;;;;;;;;;6.50;4.50;;;;;17.70;60.48;101182.00;5131694;27;44856;-79
2022/06/09 07:16:48;;;;;;;;;3.00;3.00;;;;;17.56;60.58;101165.00;5131018;27;45913;-79
2022/06/09 07:19:15;;;;;;;;;4.00;4.00;;;;;17.54;60.68;101163.22;5131593;27;46261;-79
2022/06/09 07:21:40;;;;;;;;;3.25;3.00;;;;;17.64;61.45;101164.22;5131827;27;45164;-80
2022/06/09 07:24:06;;;;;;;;;5.00;4.00;;;;;17.72;61.13;101173.16;5131438;27;45397;-79
2022/06/09 07:26:31;;;;;;;;;4.00;2.50;;;;;17.80;61.13;101173.31;5132235;27;45047;-79
2022/06/09 07:28:57;;;;;;;;;5.25;2.75;;;;;17.96;60.76;101199.19;5130894;27;45325;-80
2022/06/09 07:31:22;;;;;;;;;3.50;3.00;;;;;18.13;60.28;101215.38;5130966;27;45066;-79
2022/06/09 07:33:47;;;;;;;;;5.00;4.00;;;;;18.17;60.31;101192.31;5122308;27;44956;-78
2022/06/09 07:36:18;;;;;;;;;6.25;3.50;;;;;18.56;59.31;101223.78;5111270;27;44996;-78
2022/06/09 07:38:43;;;;;;;;;5.00;4.50;;;;;18.65;59.43;101218.53;5110730;27;45883;-79
2022/06/09 07:41:09;;;;;;;;;3.50;3.00;;;;;18.72;58.51;101199.13;5110912;27;45158;-79
2022/06/09 07:43:35;;;;;;;;;4.75;3.25;;;;;18.63;58.79;101196.34;5092408;27;45145;-80
2022/06/09 07:46:01;;;;;;;;;3.00;2.50;;;;;18.60;58.92;101208.72;5110313;27;45205;-79
2022/06/09 07:48:28;;;;;;;;;4.00;3.00;;;;;18.70;58.09;101259.44;5110408;27;45578;-79
2022/06/09 07:50:53;;;;;;;;;4.00;3.00;;;;;18.49;58.54;101220.16;5110917;27;45228;-78
2022/06/09 07:53:20;;;;;;;;;4.75;4.75;;;;;18.36;58.06;101204.94;5110460;27;45059;-80
2022/06/09 07:55:45;;;;;;;;;4.00;4.00;;;;;18.63;58.08;101248.72;5092764;27;45016;-79
2022/06/09 07:58:12;;;;;;;;;3.50;3.00;;;;;18.44;58.20;101219.22;5109922;27;45273;-78
2022/06/09 08:00:38;;;;;;;;;2.50;2.50;;;;;18.28;57.26;101201.34;5110544;27;45561;-79
2022/06/09 08:03:04;;;;;;;;;5.75;4.00;;;;;18.12;57.72;101188.72;5110083;27;45205;-80
2022/06/09 08:05:31;;;;;;;;;3.50;3.25;;;;;18.31;57.25;101247.47;5111061;27;45337;-80
2022/06/09 08:07:56;;;;;;;;;4.25;4.25;;;;;18.10;58.36;101217.97;5110041;27;45392;-80
2022/06/09 08:10:24;;;;;;;;;3.00;3.00;;;;;18.24;58.44;101234.09;5124590;27;45238;-79
2022/06/09 08:12:51;;;;;;;;;2.75;1.50;;;;;18.33;57.40;101212.91;5112114;27;45103;-78
2022/06/09 08:15:18;;;;;;;;;3.75;2.75;;;;;18.71;57.80;101242.59;5130228;27;45213;-79
2022/06/09 08:17:44;;;;;;;;;3.00;2.75;;;;;18.88;56.99;101247.19;5130991;27;45678;-79
2022/06/09 08:20:11;;;;;;;;;2.25;1.50;;;;;18.82;57.56;101237.38;5130970;27;45255;-79
2022/06/09 08:22:40;;;;;;;;;3.00;3.00;;;;;18.70;56.59;101211.53;5128764;27;45167;-79
2022/06/09 08:25:07;;;;;;;;;2.50;2.50;;;;;19.03;56.48;101261.53;5109746;27;45923;-78
2022/06/09 08:27:33;;;;;;;;;4.25;3.25;;;;;19.17;56.61;101255.44;5110048;27;45977;-80
2022/06/09 08:29:59;;;;;;;;;4.25;4.25;;;;;19.14;56.11;101218.97;5109727;27;45239;-78
2022/06/09 08:32:24;;;;;;;;;1.75;1.75;;;;;19.29;54.88;101229.72;5110477;27;45227;-79
2022/06/09 08:34:49;;;;;;;;;3.75;3.50;;;;;19.29;55.52;101228.84;5110390;27;45311;-79
2022/06/09 08:37:15;;;;;;;;;4.00;3.33;;;;;19.49;54.74;101243.19;5109294;27;47937;-79
2022/06/09 08:39:40;;;;;;;;;4.00;2.00;;;;;19.49;54.18;101236.97;5110212;27;45160;-79
2022/06/09 08:42:28;;;;;;;;;3.75;3.00;;;;;19.66;54.37;101255.78;5109968;27;45273;-80
2022/06/09 08:45:10;;;;;;;;;3.50;3.50;;;;;19.83;53.94;101273.63;5110030;27;44984;-79
2022/06/09 08:47:40;;;;;;;;;2.00;2.00;;;;;19.92;54.36;101278.13;5110201;27;45276;-79
2022/06/09 08:50:24;;;;;;;;;2.25;2.00;;;;;19.98;54.15;101272.81;5109495;27;45982;-79
2022/06/09 08:53:00;;;;;;;;;4.75;3.00;;;;;19.96;53.78;101273.72;5109693;27;45250;-78
2022/06/09 08:55:37;;;;;;;;;3.75;3.00;;;;;19.91;53.69;101263.03;5110509;27;45350;-79
2022/06/09 08:58:08;;;;;;;;;2.00;2.00;;;;;19.71;53.73;101241.59;5109053;27;45886;-79
2022/06/09 09:00:39;;;;;;;;;2.75;2.00;;;;;19.73;53.55;101266.47;5109526;27;45675;-79
2022/06/09 09:03:19;;;;;;;;;3.00;2.00;;;;;19.65;54.37;101269.97;5109581;27;45275;-78
2022/06/09 09:05:52;;;;;;;;;3.00;3.00;;;;;19.47;53.85;101260.97;5109927;27;45068;-78
2022/06/09 09:08:18;;;;;;;;;3.75;3.00;;;;;19.35;53.59;101260.88;5108865;27;46434;-78
2022/06/09 09:11:04;;;;;;;;;3.00;2.50;;;;;19.37;54.44;101277.78;5127063;27;45000;-79
2022/06/09 09:13:48;;;;;;;;;4.25;3.00;;;;;19.39;54.05;101272.44;5111048;27;45032;-80
2022/06/09 09:17:00;;;;;;;;;3.50;3.00;;;;;19.66;54.37;101255.78;5109942;27;45598;-78
2022/06/09 09:19:47;;;;;;;;;3.00;2.25;;;;;20.09;53.98;101255.06;5086394;27;45394;-79
2022/06/09 09:22:21;;;;;;;;;3.00;2.75;;;;;20.36;52.77;101253.38;5110816;27;45542;-78
2022/06/09 09:25:13;;;;;;;;;4.00;4.00;;;;;20.41;51.81;101250.72;5130326;27;45018;-80
2022/06/09 09:27:47;;;;;;;;;3.00;2.00;;;;;20.41;51.23;101250.72;5111704;27;45084;-79
2022/06/09 09:30:20;;;;;;;;;4.50;3.00;;;;;20.55;51.90;101243.69;5129029;27;45268;-79
2022/06/09 09:32:49;;;;;;;;;3.00;3.00;;;;;20.71;51.28;101263.28;5110756;27;45411;-79
2022/06/09 09:35:27;;;;;;;;;3.75;3.25;;;;;20.79;50.69;101269.53;5130008;27;45095;-80
2022/06/09 09:37:55;;;;;;;;;2.00;2.00;;;;;20.87;50.27;101265.06;5110842;27;45091;-79
2022/06/09 09:40:24;;;;;;;;;3.25;2.00;;;;;20.97;50.42;101260.63;5111263;27;47732;-80
2022/06/09 09:42:54;;;;;;;;;3.00;2.50;;;;;21.04;50.12;101267.75;5129564;27;45761;-80
2022/06/09 09:45:30;;;;;;;;;2.00;2.00;;;;;21.05;49.76;101233.00;5128920;27;45362;-80
2022/06/09 09:48:01;;;;;;;;;3.00;3.00;;;;;21.38;49.85;101256.19;5111349;27;45347;-79
2022/06/09 09:50:32;;;;;;;;;5.00;3.00;;;;;21.45;49.27;101249.03;5129960;27;45199;-80
2022/06/09 09:53:21;;;;;;;;;2.00;1.75;;;;;21.65;48.34;101270.38;5132549;27;45141;-78
2022/06/09 09:55:57;;;;;;;;;2.75;2.25;;;;;21.70;48.35;101270.38;5118406;27;45155;-80
2022/06/09 09:58:24;;;;;;;;;3.00;2.00;;;;;21.69;48.73;101279.31;5136761;27;45212;-80
2022/06/09 10:01:16;;;;;;;;;2.50;2.00;;;;;21.73;48.69;101268.59;5117273;27;47542;-80
2022/06/09 10:09:31;;;;;;;;;3.00;2.50;;;;;22.04;46.95;101288.09;5115144;27;45076;-79
2022/06/09 10:12:03;;;;;;;;;2.75;2.75;;;;;22.03;46.79;101280.09;5115916;27;45415;-80
2022/06/09 10:15:10;;;;;;;;;2.25;2.25;;;;;22.15;46.79;101280.94;5114664;27;45581;-80
2022/06/09 10:17:57;;;;;;;;;2.50;2.00;;;;;22.14;46.65;101291.66;5066771;27;45153;-79
2022/06/09 10:20:28;;;;;;;;;3.00;3.00;;;;;22.17;46.97;101282.72;5116114;27;45155;-81
2022/06/09 10:23:06;;;;;;;;;2.00;2.00;;;;;22.22;46.67;101286.28;5114892;27;45402;-78
2022/06/09 10:26:09;;;;;;;;;1.75;1.75;;;;;22.20;46.84;101288.06;5096934;27;45501;-79
2022/06/09 10:28:56;;;;;;;;;1.50;1.50;;;;;22.23;46.42;101288.06;5096828;27;45292;-80
2022/06/09 10:31:42;;;;;;;;;3.00;2.00;;;;;22.21;45.91;101284.47;5096761;27;45142;-79
2022/06/09 10:34:17;;;;;;;;;4.00;2.50;;;;;22.22;45.67;101279.16;5096334;27;47208;-79
2022/06/09 10:36:50;;;;;;;;;1.00;1.00;;;;;22.29;46.07;101280.88;5115404;27;45946;-79
2022/06/09 10:39:36;;;;;;;;;2.50;2.50;;;;;22.46;47.02;101302.19;5115907;27;45246;-79
2022/06/09 10:42:33;;;;;;;;;2.00;2.00;;;;;22.58;45.66;101302.16;5096779;27;45126;-79
2022/06/09 10:45:17;;;;;;;;;3.00;2.00;;;;;22.67;45.29;101294.06;5114310;27;45358;-79
2022/06/09 10:56:53;;;;;;;;;1.00;1.00;;;;;23.24;43.61;101298.13;5136275;27;45600;-79
2022/06/09 10:59:37;;;;;;;;;1.00;1.00;;;;;23.20;43.87;101296.38;5116250;27;45225;-78
2022/06/09 11:02:11;;;;;;;;;2.00;1.00;;;;;23.13;43.45;101269.59;5116634;27;45145;-78
2022/06/09 11:04:36;;;;;;;;;1.75;1.75;;;;;23.26;43.38;101274.88;5133618;27;45200;-80
2022/06/09 11:07:28;;;;;;;;;2.00;1.50;;;;;23.29;43.75;101269.47;5132101;27;45714;-79
2022/06/09 11:10:28;;;;;;;;;2.00;1.00;;;;;23.56;42.58;101297.84;5122678;27;45331;-80
2022/06/09 11:13:12;;;;;;;;;2.00;2.00;;;;;23.68;42.56;101308.47;5110904;27;45294;-79
2022/06/09 11:16:02;;;;;;;;;0.75;0.75;;;;;23.62;42.39;101287.91;5093335;27;45144;-79
2022/06/09 11:18:30;;;;;;;;;1.75;1.75;;;;;23.70;42.05;101309.34;5111492;27;45495;-79
2022/06/09 11:21:19;;;;;;;;;2.00;1.00;;;;;23.75;42.16;101301.25;5111376;27;45442;-80
2022/06/09 11:24:12;;;;;;;;;1.00;0.75;;;;;23.83;41.46;101304.72;5111295;27;45201;-79
2022/06/09 11:26:47;;;;;;;;;1.25;1.25;;;;;23.74;42.29;101304.81;5089416;28;45147;-79
2022/06/09 11:29:49;;;;;;;;;1.75;1.00;;;;;23.59;41.10;101271.84;5089931;27;45658;-79
2022/06/09 11:32:26;;;;;;;;;2.00;2.00;;;;;23.80;41.49;101294.03;5088802;28;45673;-79
2022/06/09 11:35:10;;;;;;;;;2.50;2.00;;;;;23.87;40.65;101306.47;5090251;27;45191;-79
2022/06/09 11:37:50;;;;;;;;;1.00;1.00;;;;;23.84;40.73;101312.78;5089425;28;45214;-79
2022/06/09 11:40:43;;;;;;;;;2.50;2.00;;;;;23.94;41.07;101308.22;5089084;28;46317;-79
2022/06/09 11:43:17;;;;;;;;;1.00;1.00;;;;;24.14;41.01;101306.16;5080244;27;45140;-80
2022/06/09 11:45:49;;;;;;;;;2.00;2.00;;;;;24.24;40.18;101289.94;5111200;27;45130;-78
2022/06/09 11:48:23;;;;;;;;;1.25;1.00;;;;;24.35;39.45;101288.00;5110498;27;45316;-80
2022/06/09 11:50:50;;;;;;;;;1.50;1.50;;;;;24.45;39.76;101287.88;5109345;27;47661;-80
2022/06/09 11:53:20;;;;;;;;;1.25;1.25;;;;;24.61;40.05;101296.59;5110925;27;45806;-79
2022/06/09 11:56:00;;;;;;;;;3.50;1.50;;;;;24.77;39.81;101309.81;5111296;27;45276;-79
2022/06/09 11:58:34;;;;;;;;;1.00;1.00;;;;;24.91;39.23;101302.41;5109149;27;44992;-79
2022/06/09 12:01:32;;;;;;;;;1.75;1.75;;;;;25.00;39.49;101310.34;5107808;27;46151;-79
2022/06/09 12:04:28;;;;;;;;;1.00;1.00;;;;;24.96;39.56;101309.50;5110753;27;45562;-78
2022/06/09 12:07:21;;;;;;;;;1.00;1.00;;;;;24.73;39.51;101300.00;5110556;27;45156;-79